sensor_id;sensor_type;location;lat;lon;timestamp;temperature;humidity
35894;DHT22;21994;48.204;16.516;2023-04-03T00:01:16;6.00;99.90
35894;DHT22;21994;48.204;16.516;2023-04-03T00:03:42;5.90;99.90
35894;DHT22;21994;48.204;16.516;2023-04-03T00:06:09;5.90;99.90
35894;DHT22;21994;48.204;16.516;2023-04-03T00:08:37;5.80;99.90
35894;DHT22;21994;48.204;16.516;2023-04-03T00:11:03;5.90;99.90
35894;DHT22;21994;48.204;16.516;2023-04-03T00:13:30;5.80;99.90
35894;DHT22;21994;48.204;16.516;2023-04-03T00:15:57;5.90;99.90
35894;DHT22;21994;48.204;16.516;2023-04-03T00:18:23;5.80;99.90
35894;DHT22;21994;48.204;16.516;2023-04-03T00:20:50;5.90;99.90
35894;DHT22;21994;48.204;16.516;2023-04-03T00:23:16;5.80;99.90
35894;DHT22;21994;48.204;16.516;2023-04-03T00:25:42;5.80;99.90
35894;DHT22;21994;48.204;16.516;2023-04-03T00:28:08;5.80;99.90
35894;DHT22;21994;48.204;16.516;2023-04-03T00:30:35;5.90;99.90
35894;DHT22;21994;48.204;16.516;2023-04-03T00:33:01;5.80;99.90
35894;DHT22;21994;48.204;16.516;2023-04-03T00:35:27;5.80;99.90
35894;DHT22;21994;48.204;16.516;2023-04-03T00:37:54;5.90;99.90
35894;DHT22;21994;48.204;16.516;2023-04-03T00:40:23;5.90;99.90
35894;DHT22;21994;48.204;16.516;2023-04-03T00:42:55;5.80;99.90
35894;DHT22;21994;48.204;16.516;2023-04-03T00:45:34;5.70;99.90
35894;DHT22;21994;48.204;16.516;2023-04-03T00:48:04;5.70;99.90
35894;DHT22;21994;48.204;16.516;2023-04-03T00:50:34;5.70;99.90
35894;DHT22;21994;48.204;16.516;2023-04-03T00:53:04;5.80;99.90
35894;DHT22;21994;48.204;16.516;2023-04-03T00:55:30;5.70;99.90
35894;DHT22;21994;48.204;16.516;2023-04-03T00:57:57;5.70;99.90
35894;DHT22;21994;48.204;16.516;2023-04-03T01:00:24;5.80;99.90
35894;DHT22;21994;48.204;16.516;2023-04-03T01:02:51;5.80;99.90
35894;DHT22;21994;48.204;16.516;2023-04-03T01:05:18;5.90;99.90
35894;DHT22;21994;48.204;16.516;2023-04-03T01:07:46;5.90;99.90
35894;DHT22;21994;48.204;16.516;2023-04-03T01:10:15;5.90;99.90
35894;DHT22;21994;48.204;16.516;2023-04-03T01:12:44;5.80;99.90
35894;DHT22;21994;48.204;16.516;2023-04-03T01:15:23;5.80;99.90
35894;DHT22;21994;48.204;16.516;2023-04-03T01:17:55;5.80;99.90
35894;DHT22;21994;48.204;16.516;2023-04-03T01:23:22;5.70;99.90
35894;DHT22;21994;48.204;16.516;2023-04-03T01:25:55;5.70;99.90
35894;DHT22;21994;48.204;16.516;2023-04-03T01:28:33;5.80;99.90
35894;DHT22;21994;48.204;16.516;2023-04-03T01:32:03;5.80;99.90
35894;DHT22;21994;48.204;16.516;2023-04-03T01:34:02;5.70;99.90
35894;DHT22;21994;48.204;16.516;2023-04-03T01:36:30;5.80;99.90
35894;DHT22;21994;48.204;16.516;2023-04-03T01:38:58;5.80;99.90
35894;DHT22;21994;48.204;16.516;2023-04-03T01:41:25;5.80;99.90
35894;DHT22;21994;48.204;16.516;2023-04-03T01:43:52;5.80;99.90
35894;DHT22;21994;48.204;16.516;2023-04-03T01:46:18;5.80;99.90
35894;DHT22;21994;48.204;16.516;2023-04-03T01:48:45;5.80;99.90
35894;DHT22;21994;48.204;16.516;2023-04-03T01:51:11;5.70;99.90
35894;DHT22;21994;48.204;16.516;2023-04-03T01:53:37;5.70;99.90
35894;DHT22;21994;48.204;16.516;2023-04-03T01:56:04;5.70;99.90
35894;DHT22;21994;48.204;16.516;2023-04-03T01:58:30;5.70;99.90
35894;DHT22;21994;48.204;16.516;2023-04-03T02:00:56;5.70;99.90
35894;DHT22;21994;48.204;16.516;2023-04-03T02:03:22;5.70;99.90
35894;DHT22;21994;48.204;16.516;2023-04-03T02:05:49;5.70;99.90
35894;DHT22;21994;48.204;16.516;2023-04-03T02:08:17;5.80;99.90
35894;DHT22;21994;48.204;16.516;2023-04-03T02:10:49;5.70;99.90
35894;DHT22;21994;48.204;16.516;2023-04-03T02:13:16;5.70;99.90
35894;DHT22;21994;48.204;16.516;2023-04-03T02:15:43;5.70;99.90
35894;DHT22;21994;48.204;16.516;2023-04-03T02:18:09;5.70;99.90
35894;DHT22;21994;48.204;16.516;2023-04-03T02:20:35;5.70;99.90
35894;DHT22;21994;48.204;16.516;2023-04-03T02:23:01;5.60;99.90
35894;DHT22;21994;48.204;16.516;2023-04-03T02:25:28;5.70;99.90
35894;DHT22;21994;48.204;16.516;2023-04-03T02:27:55;5.60;99.90
35894;DHT22;21994;48.204;16.516;2023-04-03T02:30:21;5.60;99.90
35894;DHT22;21994;48.204;16.516;2023-04-03T02:32:47;5.60;99.90
35894;DHT22;21994;48.204;16.516;2023-04-03T02:35:13;5.70;99.90
35894;DHT22;21994;48.204;16.516;2023-04-03T02:37:39;5.70;99.90
35894;DHT22;21994;48.204;16.516;2023-04-03T02:40:06;5.70;99.90
35894;DHT22;21994;48.204;16.516;2023-04-03T02:42:33;5.70;99.90
35894;DHT22;21994;48.204;16.516;2023-04-03T02:44:58;5.60;99.90
35894;DHT22;21994;48.204;16.516;2023-04-03T02:47:27;5.60;99.90
35894;DHT22;21994;48.204;16.516;2023-04-03T02:49:53;5.60;99.90
35894;DHT22;21994;48.204;16.516;2023-04-03T02:52:19;5.60;99.90
35894;DHT22;21994;48.204;16.516;2023-04-03T02:54:45;5.50;99.90
35894;DHT22;21994;48.204;16.516;2023-04-03T02:57:11;5.60;99.90
35894;DHT22;21994;48.204;16.516;2023-04-03T02:59:38;5.60;99.90
35894;DHT22;21994;48.204;16.516;2023-04-03T03:02:09;5.50;99.90
35894;DHT22;21994;48.204;16.516;2023-04-03T03:04:36;5.50;99.90
35894;DHT22;21994;48.204;16.516;2023-04-03T03:07:02;5.40;99.90
35894;DHT22;21994;48.204;16.516;2023-04-03T03:09:28;5.50;99.90
35894;DHT22;21994;48.204;16.516;2023-04-03T03:11:55;5.50;99.90
35894;DHT22;21994;48.204;16.516;2023-04-03T03:14:24;5.50;99.90
35894;DHT22;21994;48.204;16.516;2023-04-03T03:16:50;5.50;99.90
35894;DHT22;21994;48.204;16.516;2023-04-03T03:19:17;5.40;99.90
35894;DHT22;21994;48.204;16.516;2023-04-03T03:21:42;5.50;99.90
35894;DHT22;21994;48.204;16.516;2023-04-03T03:24:08;5.40;99.90
35894;DHT22;21994;48.204;16.516;2023-04-03T03:26:34;5.30;99.90
35894;DHT22;21994;48.204;16.516;2023-04-03T03:29:00;5.40;99.90
35894;DHT22;21994;48.204;16.516;2023-04-03T03:31:26;5.40;99.90
35894;DHT22;21994;48.204;16.516;2023-04-03T03:33:52;5.30;99.90
35894;DHT22;21994;48.204;16.516;2023-04-03T03:36:18;5.30;99.90
35894;DHT22;21994;48.204;16.516;2023-04-03T03:38:44;5.30;99.90
35894;DHT22;21994;48.204;16.516;2023-04-03T03:41:10;5.20;99.90
35894;DHT22;21994;48.204;16.516;2023-04-03T03:43:36;5.30;99.90
35894;DHT22;21994;48.204;16.516;2023-04-03T03:46:02;5.40;99.90
35894;DHT22;21994;48.204;16.516;2023-04-03T03:48:27;5.30;99.90
35894;DHT22;21994;48.204;16.516;2023-04-03T03:50:53;5.40;99.90
35894;DHT22;21994;48.204;16.516;2023-04-03T03:53:19;5.40;99.90
35894;DHT22;21994;48.204;16.516;2023-04-03T03:55:45;5.40;99.90
35894;DHT22;21994;48.204;16.516;2023-04-03T03:58:11;5.30;99.90
35894;DHT22;21994;48.204;16.516;2023-04-03T04:00:37;5.40;99.90
35894;DHT22;21994;48.204;16.516;2023-04-03T04:03:03;5.40;99.90
35894;DHT22;21994;48.204;16.516;2023-04-03T04:05:30;5.30;99.90
35894;DHT22;21994;48.204;16.516;2023-04-03T04:07:56;5.30;99.90
35894;DHT22;21994;48.204;16.516;2023-04-03T04:10:21;5.20;99.90
35894;DHT22;21994;48.204;16.516;2023-04-03T04:12:47;5.20;99.90
35894;DHT22;21994;48.204;16.516;2023-04-03T04:15:14;5.20;99.90
35894;DHT22;21994;48.204;16.516;2023-04-03T04:17:40;5.20;99.90
35894;DHT22;21994;48.204;16.516;2023-04-03T04:20:06;5.20;99.90
35894;DHT22;21994;48.204;16.516;2023-04-03T04:22:32;5.10;99.90
35894;DHT22;21994;48.204;16.516;2023-04-03T04:24:58;5.10;99.90
35894;DHT22;21994;48.204;16.516;2023-04-03T04:27:24;5.10;99.90
35894;DHT22;21994;48.204;16.516;2023-04-03T04:29:50;5.20;99.90
35894;DHT22;21994;48.204;16.516;2023-04-03T04:32:16;5.10;99.90
35894;DHT22;21994;48.204;16.516;2023-04-03T04:34:42;5.10;99.90
35894;DHT22;21994;48.204;16.516;2023-04-03T04:37:08;5.20;99.90
35894;DHT22;21994;48.204;16.516;2023-04-03T04:39:33;5.20;99.90
35894;DHT22;21994;48.204;16.516;2023-04-03T04:42:00;5.10;99.90
35894;DHT22;21994;48.204;16.516;2023-04-03T04:44:26;5.10;99.90
35894;DHT22;21994;48.204;16.516;2023-04-03T04:46:52;5.00;99.90
35894;DHT22;21994;48.204;16.516;2023-04-03T04:49:17;5.00;99.90
35894;DHT22;21994;48.204;16.516;2023-04-03T04:51:43;5.10;99.90
35894;DHT22;21994;48.204;16.516;2023-04-03T04:54:09;5.10;99.90
35894;DHT22;21994;48.204;16.516;2023-04-03T04:56:35;5.10;99.90
35894;DHT22;21994;48.204;16.516;2023-04-03T04:59:01;5.10;99.90
35894;DHT22;21994;48.204;16.516;2023-04-03T05:01:27;5.10;99.90
35894;DHT22;21994;48.204;16.516;2023-04-03T05:03:54;5.10;99.90
35894;DHT22;21994;48.204;16.516;2023-04-03T05:06:20;5.00;99.90
35894;DHT22;21994;48.204;16.516;2023-04-03T05:08:46;5.00;99.90
35894;DHT22;21994;48.204;16.516;2023-04-03T05:11:12;5.10;99.90
35894;DHT22;21994;48.204;16.516;2023-04-03T05:13:38;5.00;99.90
35894;DHT22;21994;48.204;16.516;2023-04-03T05:16:04;5.10;99.90
35894;DHT22;21994;48.204;16.516;2023-04-03T05:18:30;5.10;99.90
35894;DHT22;21994;48.204;16.516;2023-04-03T05:20:56;5.10;99.90
35894;DHT22;21994;48.204;16.516;2023-04-03T05:23:23;5.10;99.90
35894;DHT22;21994;48.204;16.516;2023-04-03T05:25:49;5.10;99.90
35894;DHT22;21994;48.204;16.516;2023-04-03T05:28:15;5.20;99.90
35894;DHT22;21994;48.204;16.516;2023-04-03T05:30:41;5.20;99.90
35894;DHT22;21994;48.204;16.516;2023-04-03T05:33:07;5.30;99.90
35894;DHT22;21994;48.204;16.516;2023-04-03T05:35:33;5.30;99.90
35894;DHT22;21994;48.204;16.516;2023-04-03T05:38:01;5.40;99.90
35894;DHT22;21994;48.204;16.516;2023-04-03T05:40:27;5.30;99.90
35894;DHT22;21994;48.204;16.516;2023-04-03T05:42:53;5.30;99.90
35894;DHT22;21994;48.204;16.516;2023-04-03T05:45:19;5.30;99.90
35894;DHT22;21994;48.204;16.516;2023-04-03T05:47:45;5.30;99.90
35894;DHT22;21994;48.204;16.516;2023-04-03T05:50:12;5.30;99.90
35894;DHT22;21994;48.204;16.516;2023-04-03T05:52:42;5.30;99.90
35894;DHT22;21994;48.204;16.516;2023-04-03T05:55:10;5.40;99.90
35894;DHT22;21994;48.204;16.516;2023-04-03T05:57:36;5.30;99.90
35894;DHT22;21994;48.204;16.516;2023-04-03T06:00:07;5.30;99.90
35894;DHT22;21994;48.204;16.516;2023-04-03T06:02:35;5.30;99.90
35894;DHT22;21994;48.204;16.516;2023-04-03T06:05:02;5.30;99.90
35894;DHT22;21994;48.204;16.516;2023-04-03T06:07:28;5.30;99.90
35894;DHT22;21994;48.204;16.516;2023-04-03T06:09:55;5.20;99.90
35894;DHT22;21994;48.204;16.516;2023-04-03T06:12:22;5.20;99.90
35894;DHT22;21994;48.204;16.516;2023-04-03T06:14:48;5.20;99.90
35894;DHT22;21994;48.204;16.516;2023-04-03T06:17:15;5.20;99.90
35894;DHT22;21994;48.204;16.516;2023-04-03T06:19:42;5.20;99.90
35894;DHT22;21994;48.204;16.516;2023-04-03T06:22:08;5.20;99.90
35894;DHT22;21994;48.204;16.516;2023-04-03T06:24:33;5.20;99.90
35894;DHT22;21994;48.204;16.516;2023-04-03T06:27:01;5.20;99.90
35894;DHT22;21994;48.204;16.516;2023-04-03T06:29:27;5.20;99.90
35894;DHT22;21994;48.204;16.516;2023-04-03T06:31:52;5.30;99.90
35894;DHT22;21994;48.204;16.516;2023-04-03T06:34:18;5.20;99.90
35894;DHT22;21994;48.204;16.516;2023-04-03T06:36:45;5.30;99.90
35894;DHT22;21994;48.204;16.516;2023-04-03T06:39:16;5.20;99.90
35894;DHT22;21994;48.204;16.516;2023-04-03T06:41:45;5.10;99.90
35894;DHT22;21994;48.204;16.516;2023-04-03T06:44:12;5.10;99.90
35894;DHT22;21994;48.204;16.516;2023-04-03T06:46:41;5.00;99.90
35894;DHT22;21994;48.204;16.516;2023-04-03T06:49:08;5.00;99.90
35894;DHT22;21994;48.204;16.516;2023-04-03T06:51:35;5.00;99.90
35894;DHT22;21994;48.204;16.516;2023-04-03T06:54:04;5.00;99.90
35894;DHT22;21994;48.204;16.516;2023-04-03T06:56:32;5.10;99.90
35894;DHT22;21994;48.204;16.516;2023-04-03T06:58:58;5.00;99.90
35894;DHT22;21994;48.204;16.516;2023-04-03T07:01:28;5.10;99.90
35894;DHT22;21994;48.204;16.516;2023-04-03T07:03:55;5.10;99.90
35894;DHT22;21994;48.204;16.516;2023-04-03T07:06:21;5.10;99.90
35894;DHT22;21994;48.204;16.516;2023-04-03T07:08:48;5.10;99.90
35894;DHT22;21994;48.204;16.516;2023-04-03T07:11:14;5.10;99.90
35894;DHT22;21994;48.204;16.516;2023-04-03T07:13:41;5.20;99.90
35894;DHT22;21994;48.204;16.516;2023-04-03T07:16:08;5.20;99.90
35894;DHT22;21994;48.204;16.516;2023-04-03T07:18:34;5.20;99.90
35894;DHT22;21994;48.204;16.516;2023-04-03T07:21:00;5.20;99.90
35894;DHT22;21994;48.204;16.516;2023-04-03T07:23:27;5.20;99.90
35894;DHT22;21994;48.204;16.516;2023-04-03T07:25:53;5.30;99.90
35894;DHT22;21994;48.204;16.516;2023-04-03T07:28:21;5.30;99.90
35894;DHT22;21994;48.204;16.516;2023-04-03T07:31:04;5.40;99.90
35894;DHT22;21994;48.204;16.516;2023-04-03T07:33:34;5.50;99.90
35894;DHT22;21994;48.204;16.516;2023-04-03T07:36:01;5.60;99.90
35894;DHT22;21994;48.204;16.516;2023-04-03T07:38:27;5.80;99.90
35894;DHT22;21994;48.204;16.516;2023-04-03T07:40:53;5.80;99.90
35894;DHT22;21994;48.204;16.516;2023-04-03T07:43:20;5.90;99.90
35894;DHT22;21994;48.204;16.516;2023-04-03T07:45:48;6.10;99.90
35894;DHT22;21994;48.204;16.516;2023-04-03T07:48:19;6.10;99.90
35894;DHT22;21994;48.204;16.516;2023-04-03T07:50:46;6.30;99.90
35894;DHT22;21994;48.204;16.516;2023-04-03T07:53:12;6.40;99.90
35894;DHT22;21994;48.204;16.516;2023-04-03T07:55:38;6.60;99.80
35894;DHT22;21994;48.204;16.516;2023-04-03T07:58:13;6.90;99.30
35894;DHT22;21994;48.204;16.516;2023-04-03T08:00:41;6.90;99.40
35894;DHT22;21994;48.204;16.516;2023-04-03T08:03:10;7.20;99.20
35894;DHT22;21994;48.204;16.516;2023-04-03T08:05:41;7.40;97.90
35894;DHT22;21994;48.204;16.516;2023-04-03T08:08:13;7.50;97.90
35894;DHT22;21994;48.204;16.516;2023-04-03T08:10:41;7.50;97.60
35894;DHT22;21994;48.204;16.516;2023-04-03T08:13:08;7.20;97.70
35894;DHT22;21994;48.204;16.516;2023-04-03T08:15:35;6.80;97.50
35894;DHT22;21994;48.204;16.516;2023-04-03T08:18:02;7.00;99.00
35894;DHT22;21994;48.204;16.516;2023-04-03T08:20:29;7.90;97.30
35894;DHT22;21994;48.204;16.516;2023-04-03T08:22:55;8.40;97.10
35894;DHT22;21994;48.204;16.516;2023-04-03T08:25:21;8.30;94.50
35894;DHT22;21994;48.204;16.516;2023-04-03T08:27:47;7.90;93.90
35894;DHT22;21994;48.204;16.516;2023-04-03T08:30:13;7.80;95.40
35894;DHT22;21994;48.204;16.516;2023-04-03T08:32:39;8.60;94.50
35894;DHT22;21994;48.204;16.516;2023-04-03T08:35:07;9.00;94.10
35894;DHT22;21994;48.204;16.516;2023-04-03T08:37:37;9.20;92.20
35894;DHT22;21994;48.204;16.516;2023-04-03T08:40:12;9.80;92.20
35894;DHT22;21994;48.204;16.516;2023-04-03T08:45:49;9.10;91.10
35894;DHT22;21994;48.204;16.516;2023-04-03T08:48:36;8.00;91.90
35894;DHT22;21994;48.204;16.516;2023-04-03T08:51:14;7.70;93.70
35894;DHT22;21994;48.204;16.516;2023-04-03T08:53:54;8.40;92.70
35894;DHT22;21994;48.204;16.516;2023-04-03T08:56:23;8.50;93.10
35894;DHT22;21994;48.204;16.516;2023-04-03T08:58:54;8.50;92.10
35894;DHT22;21994;48.204;16.516;2023-04-03T09:01:39;8.20;92.00
35894;DHT22;21994;48.204;16.516;2023-04-03T09:04:14;7.70;92.90
35894;DHT22;21994;48.204;16.516;2023-04-03T09:06:44;7.50;93.30
35894;DHT22;21994;48.204;16.516;2023-04-03T09:09:36;7.10;93.80
35894;DHT22;21994;48.204;16.516;2023-04-03T09:12:25;7.00;92.40
35894;DHT22;21994;48.204;16.516;2023-04-03T09:15:21;7.00;92.60
35894;DHT22;21994;48.204;16.516;2023-04-03T09:22:57;6.90;92.80
35894;DHT22;21994;48.204;16.516;2023-04-03T09:25:27;7.00;92.80
35894;DHT22;21994;48.204;16.516;2023-04-03T09:27:55;7.00;93.50
35894;DHT22;21994;48.204;16.516;2023-04-03T09:30:24;7.00;93.30
35894;DHT22;21994;48.204;16.516;2023-04-03T09:32:53;6.90;93.70
35894;DHT22;21994;48.204;16.516;2023-04-03T09:35:29;7.00;94.40
35894;DHT22;21994;48.204;16.516;2023-04-03T09:38:01;6.90;93.20
35894;DHT22;21994;48.204;16.516;2023-04-03T09:41:13;6.80;92.90
35894;DHT22;21994;48.204;16.516;2023-04-03T09:43:38;6.60;92.30
35894;DHT22;21994;48.204;16.516;2023-04-03T09:46:36;6.30;92.00
35894;DHT22;21994;48.204;16.516;2023-04-03T09:49:04;6.20;92.50
35894;DHT22;21994;48.204;16.516;2023-04-03T09:51:31;6.00;92.60
35894;DHT22;21994;48.204;16.516;2023-04-03T09:53:58;6.10;92.40
35894;DHT22;21994;48.204;16.516;2023-04-03T09:56:29;6.20;92.20
35894;DHT22;21994;48.204;16.516;2023-04-03T10:01:33;6.30;92.00
35894;DHT22;21994;48.204;16.516;2023-04-03T10:04:17;6.40;91.20
35894;DHT22;21994;48.204;16.516;2023-04-03T10:06:50;6.50;91.60
35894;DHT22;21994;48.204;16.516;2023-04-03T10:09:28;6.60;90.90
35894;DHT22;21994;48.204;16.516;2023-04-03T10:12:03;6.60;91.90
35894;DHT22;21994;48.204;16.516;2023-04-03T10:14:38;6.50;91.60
35894;DHT22;21994;48.204;16.516;2023-04-03T10:19:59;6.40;92.60
35894;DHT22;21994;48.204;16.516;2023-04-03T10:34:04;7.00;91.70
35894;DHT22;21994;48.204;16.516;2023-04-03T10:39:33;8.00;90.60
35894;DHT22;21994;48.204;16.516;2023-04-03T10:42:39;8.40;88.50
35894;DHT22;21994;48.204;16.516;2023-04-03T10:45:49;10.20;83.40
35894;DHT22;21994;48.204;16.516;2023-04-03T10:48:32;12.10;83.80
35894;DHT22;21994;48.204;16.516;2023-04-03T10:56:47;8.90;80.50
35894;DHT22;21994;48.204;16.516;2023-04-03T11:01:47;7.70;84.40
35894;DHT22;21994;48.204;16.516;2023-04-03T11:04:16;7.50;82.90
35894;DHT22;21994;48.204;16.516;2023-04-03T11:07:01;7.40;82.20
35894;DHT22;21994;48.204;16.516;2023-04-03T11:09:39;7.50;82.40
35894;DHT22;21994;48.204;16.516;2023-04-03T11:14:52;9.60;81.10
35894;DHT22;21994;48.204;16.516;2023-04-03T11:22:27;8.10;81.40
35894;DHT22;21994;48.204;16.516;2023-04-03T11:27:42;7.20;84.30
35894;DHT22;21994;48.204;16.516;2023-04-03T11:30:33;7.20;86.00
35894;DHT22;21994;48.204;16.516;2023-04-03T11:35:54;7.30;84.40
35894;DHT22;21994;48.204;16.516;2023-04-03T11:38:33;7.40;82.60
35894;DHT22;21994;48.204;16.516;2023-04-03T11:41:03;7.50;81.80
35894;DHT22;21994;48.204;16.516;2023-04-03T11:43:32;7.60;82.20
35894;DHT22;21994;48.204;16.516;2023-04-03T11:46:04;7.50;82.10
35894;DHT22;21994;48.204;16.516;2023-04-03T11:50:58;7.10;84.70
35894;DHT22;21994;48.204;16.516;2023-04-03T11:53:29;6.80;84.80
35894;DHT22;21994;48.204;16.516;2023-04-03T11:58:35;6.50;84.10
35894;DHT22;21994;48.204;16.516;2023-04-03T12:01:11;6.50;84.40
35894;DHT22;21994;48.204;16.516;2023-04-03T12:04:18;6.60;84.00
35894;DHT22;21994;48.204;16.516;2023-04-03T12:17:48;7.00;84.60
35894;DHT22;21994;48.204;16.516;2023-04-03T12:20:53;7.10;84.50
35894;DHT22;21994;48.204;16.516;2023-04-03T12:28:48;7.10;82.70
35894;DHT22;21994;48.204;16.516;2023-04-03T12:31:15;7.10;82.50
35894;DHT22;21994;48.204;16.516;2023-04-03T12:39:52;6.80;83.00
35894;DHT22;21994;48.204;16.516;2023-04-03T12:45:56;6.90;82.40
35894;DHT22;21994;48.204;16.516;2023-04-03T12:51:41;7.30;80.90
35894;DHT22;21994;48.204;16.516;2023-04-03T12:54:35;7.50;79.80
35894;DHT22;21994;48.204;16.516;2023-04-03T12:57:22;7.60;79.50
35894;DHT22;21994;48.204;16.516;2023-04-03T12:59:50;7.30;79.00
35894;DHT22;21994;48.204;16.516;2023-04-03T13:02:24;7.00;80.30
35894;DHT22;21994;48.204;16.516;2023-04-03T13:04:55;6.90;80.10
35894;DHT22;21994;48.204;16.516;2023-04-03T13:07:33;6.70;81.10
35894;DHT22;21994;48.204;16.516;2023-04-03T13:12:33;6.80;81.20
35894;DHT22;21994;48.204;16.516;2023-04-03T13:15:29;6.60;80.00
35894;DHT22;21994;48.204;16.516;2023-04-03T13:17:56;6.50;82.80
35894;DHT22;21994;48.204;16.516;2023-04-03T13:20:32;6.60;83.60
35894;DHT22;21994;48.204;16.516;2023-04-03T13:23:07;6.60;82.60
35894;DHT22;21994;48.204;16.516;2023-04-03T13:25:37;6.80;83.70
35894;DHT22;21994;48.204;16.516;2023-04-03T13:28:17;7.10;82.80
35894;DHT22;21994;48.204;16.516;2023-04-03T13:33:32;7.10;81.60
35894;DHT22;21994;48.204;16.516;2023-04-03T13:36:04;7.00;81.80
35894;DHT22;21994;48.204;16.516;2023-04-03T13:38:33;6.70;81.00
35894;DHT22;21994;48.204;16.516;2023-04-03T13:41:05;6.60;83.30
35894;DHT22;21994;48.204;16.516;2023-04-03T13:43:47;6.60;80.90
35894;DHT22;21994;48.204;16.516;2023-04-03T13:48:46;6.40;81.30
35894;DHT22;21994;48.204;16.516;2023-04-03T13:51:17;6.50;83.00
35894;DHT22;21994;48.204;16.516;2023-04-03T13:54:00;6.60;82.20
35894;DHT22;21994;48.204;16.516;2023-04-03T14:02:32;6.80;81.20
35894;DHT22;21994;48.204;16.516;2023-04-03T14:04:56;6.90;80.40
35894;DHT22;21994;48.204;16.516;2023-04-03T14:07:26;7.20;81.10
35894;DHT22;21994;48.204;16.516;2023-04-03T14:09:53;7.20;80.70
35894;DHT22;21994;48.204;16.516;2023-04-03T14:12:27;7.20;80.40
35894;DHT22;21994;48.204;16.516;2023-04-03T14:14:58;7.00;78.80
35894;DHT22;21994;48.204;16.516;2023-04-03T14:17:26;6.80;79.00
35894;DHT22;21994;48.204;16.516;2023-04-03T14:19:55;6.70;80.00
35894;DHT22;21994;48.204;16.516;2023-04-03T14:22:32;6.70;81.20
35894;DHT22;21994;48.204;16.516;2023-04-03T14:25:22;6.80;81.00
35894;DHT22;21994;48.204;16.516;2023-04-03T14:27:52;6.90;83.90
35894;DHT22;21994;48.204;16.516;2023-04-03T14:30:29;6.90;80.00
35894;DHT22;21994;48.204;16.516;2023-04-03T14:32:57;6.70;80.70
35894;DHT22;21994;48.204;16.516;2023-04-03T14:35:25;6.50;80.90
35894;DHT22;21994;48.204;16.516;2023-04-03T14:37:53;6.50;80.10
35894;DHT22;21994;48.204;16.516;2023-04-03T14:40:24;6.50;82.90
35894;DHT22;21994;48.204;16.516;2023-04-03T14:42:52;6.60;81.10
35894;DHT22;21994;48.204;16.516;2023-04-03T14:45:21;6.80;80.00
35894;DHT22;21994;48.204;16.516;2023-04-03T14:47:49;7.00;81.10
35894;DHT22;21994;48.204;16.516;2023-04-03T14:50:25;7.00;81.10
35894;DHT22;21994;48.204;16.516;2023-04-03T14:52:54;7.00;80.40
35894;DHT22;21994;48.204;16.516;2023-04-03T14:55:24;7.00;80.20
35894;DHT22;21994;48.204;16.516;2023-04-03T14:57:51;7.30;80.60
35894;DHT22;21994;48.204;16.516;2023-04-03T15:00:19;7.70;77.30
35894;DHT22;21994;48.204;16.516;2023-04-03T15:02:47;7.80;77.40
35894;DHT22;21994;48.204;16.516;2023-04-03T15:05:14;7.70;76.30
35894;DHT22;21994;48.204;16.516;2023-04-03T15:07:50;8.10;77.40
35894;DHT22;21994;48.204;16.516;2023-04-03T15:10:30;8.00;76.20
35894;DHT22;21994;48.204;16.516;2023-04-03T15:12:57;7.50;77.20
35894;DHT22;21994;48.204;16.516;2023-04-03T15:15:24;7.40;78.50
35894;DHT22;21994;48.204;16.516;2023-04-03T15:17:52;7.30;78.40
35894;DHT22;21994;48.204;16.516;2023-04-03T15:20:22;7.40;77.80
35894;DHT22;21994;48.204;16.516;2023-04-03T15:22:49;7.50;79.70
35894;DHT22;21994;48.204;16.516;2023-04-03T15:25:15;7.50;78.80
35894;DHT22;21994;48.204;16.516;2023-04-03T15:27:42;7.80;77.80
35894;DHT22;21994;48.204;16.516;2023-04-03T15:30:13;7.80;79.00
35894;DHT22;21994;48.204;16.516;2023-04-03T15:32:41;7.80;77.90
35894;DHT22;21994;48.204;16.516;2023-04-03T15:35:10;7.70;77.40
35894;DHT22;21994;48.204;16.516;2023-04-03T15:37:36;7.30;76.90
35894;DHT22;21994;48.204;16.516;2023-04-03T15:40:04;7.20;78.80
35894;DHT22;21994;48.204;16.516;2023-04-03T15:42:31;7.30;78.60
35894;DHT22;21994;48.204;16.516;2023-04-03T15:44:57;7.60;76.20
35894;DHT22;21994;48.204;16.516;2023-04-03T15:47:24;7.70;77.40
35894;DHT22;21994;48.204;16.516;2023-04-03T15:49:51;7.90;76.90
35894;DHT22;21994;48.204;16.516;2023-04-03T15:52:17;7.90;76.70
35894;DHT22;21994;48.204;16.516;2023-04-03T15:54:43;7.70;76.80
35894;DHT22;21994;48.204;16.516;2023-04-03T15:57:08;7.60;77.60
35894;DHT22;21994;48.204;16.516;2023-04-03T15:59:35;7.40;77.90
35894;DHT22;21994;48.204;16.516;2023-04-03T16:02:01;6.90;78.20
35894;DHT22;21994;48.204;16.516;2023-04-03T16:04:30;6.70;78.80
35894;DHT22;21994;48.204;16.516;2023-04-03T16:06:56;6.60;79.50
35894;DHT22;21994;48.204;16.516;2023-04-03T16:09:22;6.70;78.80
35894;DHT22;21994;48.204;16.516;2023-04-03T16:11:48;6.70;78.30
35894;DHT22;21994;48.204;16.516;2023-04-03T16:14:14;6.60;77.80
35894;DHT22;21994;48.204;16.516;2023-04-03T16:16:40;6.60;78.00
35894;DHT22;21994;48.204;16.516;2023-04-03T16:19:06;6.40;78.80
35894;DHT22;21994;48.204;16.516;2023-04-03T16:21:32;6.40;78.00
35894;DHT22;21994;48.204;16.516;2023-04-03T16:23:59;6.30;78.90
35894;DHT22;21994;48.204;16.516;2023-04-03T16:26:26;6.40;78.90
35894;DHT22;21994;48.204;16.516;2023-04-03T16:28:52;6.40;78.80
35894;DHT22;21994;48.204;16.516;2023-04-03T16:31:19;6.20;78.20
35894;DHT22;21994;48.204;16.516;2023-04-03T16:33:45;6.10;78.30
35894;DHT22;21994;48.204;16.516;2023-04-03T16:36:11;5.90;78.50
35894;DHT22;21994;48.204;16.516;2023-04-03T16:38:37;5.80;78.80
35894;DHT22;21994;48.204;16.516;2023-04-03T16:41:03;5.80;81.10
35894;DHT22;21994;48.204;16.516;2023-04-03T16:43:33;5.70;81.30
35894;DHT22;21994;48.204;16.516;2023-04-03T16:46:01;5.60;80.90
35894;DHT22;21994;48.204;16.516;2023-04-03T16:48:28;5.50;81.60
35894;DHT22;21994;48.204;16.516;2023-04-03T16:50:55;5.60;80.60
35894;DHT22;21994;48.204;16.516;2023-04-03T16:53:22;5.40;82.00
35894;DHT22;21994;48.204;16.516;2023-04-03T16:55:49;5.40;82.40
35894;DHT22;21994;48.204;16.516;2023-04-03T16:58:16;5.40;82.00
35894;DHT22;21994;48.204;16.516;2023-04-03T17:00:42;5.40;82.80
35894;DHT22;21994;48.204;16.516;2023-04-03T17:03:08;5.30;82.10
35894;DHT22;21994;48.204;16.516;2023-04-03T17:05:35;5.20;81.50
35894;DHT22;21994;48.204;16.516;2023-04-03T17:08:01;5.20;82.70
35894;DHT22;21994;48.204;16.516;2023-04-03T17:10:28;5.20;83.70
35894;DHT22;21994;48.204;16.516;2023-04-03T17:12:54;5.20;80.90
35894;DHT22;21994;48.204;16.516;2023-04-03T17:15:20;5.20;81.50
35894;DHT22;21994;48.204;16.516;2023-04-03T17:17:47;5.10;81.30
35894;DHT22;21994;48.204;16.516;2023-04-03T17:20:14;5.00;81.30
35894;DHT22;21994;48.204;16.516;2023-04-03T17:22:40;4.90;80.00
35894;DHT22;21994;48.204;16.516;2023-04-03T17:25:06;4.90;80.30